sensor_id;sensor_type;location;lat;lon;timestamp;pressure;altitude;pressure_sealevel;temperature;humidity
10881;BME280;5493;48.884;8.338;2023-01-27T00:00:33;100618.91;;;1.91;100.00
10881;BME280;5493;48.884;8.338;2023-01-27T00:03:00;100618.66;;;1.85;100.00
10881;BME280;5493;48.884;8.338;2023-01-27T00:05:26;100618.97;;;1.82;100.00
10881;BME280;5493;48.884;8.338;2023-01-27T00:07:53;100621.75;;;1.98;100.00
10881;BME280;5493;48.884;8.338;2023-01-27T00:10:23;100614.66;;;2.07;100.00
10881;BME280;5493;48.884;8.338;2023-01-27T00:12:49;100621.53;;;2.17;100.00
10881;BME280;5493;48.884;8.338;2023-01-27T00:15:35;100618.59;;;2.28;100.00
10881;BME280;5493;48.884;8.338;2023-01-27T00:18:01;100617.19;;;2.42;100.00
10881;BME280;5493;48.884;8.338;2023-01-27T00:20:28;100618.53;;;2.12;100.00
10881;BME280;5493;48.884;8.338;2023-01-27T00:23:13;100626.56;;;2.20;100.00
10881;BME280;5493;48.884;8.338;2023-01-27T00:25:58;100625.03;;;2.18;100.00
10881;BME280;5493;48.884;8.338;2023-01-27T00:28:26;100621.84;;;2.14;100.00
10881;BME280;5493;48.884;8.338;2023-01-27T00:30:57;100620.34;;;2.12;100.00
10881;BME280;5493;48.884;8.338;2023-01-27T00:33:24;100626.44;;;2.04;100.00
10881;BME280;5493;48.884;8.338;2023-01-27T00:35:56;100624.88;;;1.93;100.00
10881;BME280;5493;48.884;8.338;2023-01-27T00:38:23;100625.41;;;1.97;100.00
10881;BME280;5493;48.884;8.338;2023-01-27T00:40:49;100623.50;;;1.89;100.00
10881;BME280;5493;48.884;8.338;2023-01-27T00:43:30;100618.47;;;2.04;100.00
10881;BME280;5493;48.884;8.338;2023-01-27T00:45:57;100622.06;;;2.21;100.00
10881;BME280;5493;48.884;8.338;2023-01-27T00:48:24;100617.75;;;2.20;100.00
10881;BME280;5493;48.884;8.338;2023-01-27T00:50:51;100612.69;;;2.42;100.00
10881;BME280;5493;48.884;8.338;2023-01-27T00:53:17;100609.84;;;2.36;100.00
10881;BME280;5493;48.884;8.338;2023-01-27T00:55:44;100597.22;;;2.38;100.00
10881;BME280;5493;48.884;8.338;2023-01-27T00:58:11;100604.00;;;2.32;100.00
10881;BME280;5493;48.884;8.338;2023-01-27T01:00:38;100609.81;;;2.28;100.00
10881;BME280;5493;48.884;8.338;2023-01-27T01:03:06;100607.75;;;2.22;100.00
10881;BME280;5493;48.884;8.338;2023-01-27T01:05:32;100611.47;;;2.03;100.00
10881;BME280;5493;48.884;8.338;2023-01-27T01:07:59;100608.41;;;2.16;100.00
10881;BME280;5493;48.884;8.338;2023-01-27T01:10:26;100607.44;;;2.25;100.00
10881;BME280;5493;48.884;8.338;2023-01-27T01:12:52;100601.25;;;2.16;100.00
10881;BME280;5493;48.884;8.338;2023-01-27T01:15:19;100604.41;;;2.45;100.00
10881;BME280;5493;48.884;8.338;2023-01-27T01:17:45;100606.78;;;2.57;100.00
10881;BME280;5493;48.884;8.338;2023-01-27T01:20:14;100600.50;;;2.32;100.00
10881;BME280;5493;48.884;8.338;2023-01-27T01:22:41;100611.78;;;2.00;100.00
10881;BME280;5493;48.884;8.338;2023-01-27T01:25:07;100608.78;;;1.95;100.00
10881;BME280;5493;48.884;8.338;2023-01-27T01:27:34;100613.13;;;1.78;100.00
10881;BME280;5493;48.884;8.338;2023-01-27T01:30:01;100604.03;;;1.81;100.00
10881;BME280;5493;48.884;8.338;2023-01-27T01:32:27;100610.28;;;1.97;100.00
10881;BME280;5493;48.884;8.338;2023-01-27T01:34:54;100605.09;;;1.70;100.00
10881;BME280;5493;48.884;8.338;2023-01-27T01:37:22;100600.88;;;1.85;100.00
10881;BME280;5493;48.884;8.338;2023-01-27T01:39:48;100603.28;;;1.96;100.00
10881;BME280;5493;48.884;8.338;2023-01-27T01:42:15;100593.19;;;2.00;100.00
10881;BME280;5493;48.884;8.338;2023-01-27T01:44:42;100588.56;;;2.02;100.00
10881;BME280;5493;48.884;8.338;2023-01-27T01:47:14;100586.50;;;1.96;100.00
10881;BME280;5493;48.884;8.338;2023-01-27T01:49:41;100577.28;;;2.08;100.00
10881;BME280;5493;48.884;8.338;2023-01-27T01:52:12;100583.25;;;2.10;100.00
10881;BME280;5493;48.884;8.338;2023-01-27T01:54:43;100578.25;;;2.07;100.00
10881;BME280;5493;48.884;8.338;2023-01-27T01:57:16;100581.69;;;1.99;100.00
10881;BME280;5493;48.884;8.338;2023-01-27T01:59:46;100572.75;;;2.01;100.00
10881;BME280;5493;48.884;8.338;2023-01-27T02:02:16;100568.59;;;1.98;100.00
10881;BME280;5493;48.884;8.338;2023-01-27T02:04:48;100569.25;;;2.00;100.00
10881;BME280;5493;48.884;8.338;2023-01-27T02:07:20;100567.56;;;1.99;100.00
10881;BME280;5493;48.884;8.338;2023-01-27T02:09:48;100577.03;;;1.93;100.00
10881;BME280;5493;48.884;8.338;2023-01-27T02:12:15;100576.56;;;1.98;100.00
10881;BME280;5493;48.884;8.338;2023-01-27T02:14:42;100575.09;;;2.04;100.00
10881;BME280;5493;48.884;8.338;2023-01-27T02:17:09;100574.81;;;2.15;100.00
10881;BME280;5493;48.884;8.338;2023-01-27T02:19:48;100576.91;;;2.03;100.00
10881;BME280;5493;48.884;8.338;2023-01-27T02:22:25;100583.00;;;1.95;100.00
10881;BME280;5493;48.884;8.338;2023-01-27T02:25:00;100587.13;;;1.90;100.00
10881;BME280;5493;48.884;8.338;2023-01-27T02:27:31;100585.53;;;1.97;100.00
10881;BME280;5493;48.884;8.338;2023-01-27T02:29:58;100587.25;;;1.80;100.00
10881;BME280;5493;48.884;8.338;2023-01-27T02:32:28;100587.50;;;1.95;100.00
10881;BME280;5493;48.884;8.338;2023-01-27T02:34:55;100584.94;;;1.85;100.00
10881;BME280;5493;48.884;8.338;2023-01-27T02:37:23;100571.22;;;2.24;100.00
10881;BME280;5493;48.884;8.338;2023-01-27T02:39:50;100585.13;;;1.84;100.00
10881;BME280;5493;48.884;8.338;2023-01-27T02:42:18;100579.63;;;2.11;100.00
10881;BME280;5493;48.884;8.338;2023-01-27T02:44:46;100580.56;;;2.02;100.00
10881;BME280;5493;48.884;8.338;2023-01-27T02:47:12;100572.63;;;2.10;100.00
10881;BME280;5493;48.884;8.338;2023-01-27T02:49:39;100569.53;;;2.23;100.00
10881;BME280;5493;48.884;8.338;2023-01-27T02:52:05;100576.16;;;2.19;100.00
10881;BME280;5493;48.884;8.338;2023-01-27T02:54:32;100576.88;;;2.29;100.00
10881;BME280;5493;48.884;8.338;2023-01-27T02:56:58;100577.06;;;2.27;100.00
10881;BME280;5493;48.884;8.338;2023-01-27T02:59:25;100579.00;;;1.91;100.00
10881;BME280;5493;48.884;8.338;2023-01-27T03:01:53;100578.53;;;1.96;100.00
10881;BME280;5493;48.884;8.338;2023-01-27T03:04:19;100578.78;;;2.11;100.00
10881;BME280;5493;48.884;8.338;2023-01-27T03:06:46;100571.75;;;2.02;100.00
10881;BME280;5493;48.884;8.338;2023-01-27T03:09:12;100575.53;;;1.91;100.00
10881;BME280;5493;48.884;8.338;2023-01-27T03:11:39;100571.69;;;1.93;100.00
10881;BME280;5493;48.884;8.338;2023-01-27T03:14:23;100572.75;;;2.01;100.00
10881;BME280;5493;48.884;8.338;2023-01-27T03:17:08;100568.97;;;2.45;100.00
10881;BME280;5493;48.884;8.338;2023-01-27T03:19:52;100569.69;;;2.21;100.00
10881;BME280;5493;48.884;8.338;2023-01-27T03:22:19;100569.97;;;2.10;100.00
10881;BME280;5493;48.884;8.338;2023-01-27T03:24:47;100570.84;;;2.19;100.00
10881;BME280;5493;48.884;8.338;2023-01-27T03:27:14;100568.19;;;2.19;100.00
10881;BME280;5493;48.884;8.338;2023-01-27T03:29:41;100575.72;;;1.97;100.00
10881;BME280;5493;48.884;8.338;2023-01-27T03:32:26;100567.66;;;2.15;100.00
10881;BME280;5493;48.884;8.338;2023-01-27T03:34:54;100571.63;;;2.11;100.00
10881;BME280;5493;48.884;8.338;2023-01-27T03:37:22;100568.94;;;2.37;100.00
10881;BME280;5493;48.884;8.338;2023-01-27T03:40:08;100570.75;;;2.36;100.00
10881;BME280;5493;48.884;8.338;2023-01-27T03:42:53;100574.41;;;2.27;100.00
10881;BME280;5493;48.884;8.338;2023-01-27T03:45:37;100583.78;;;2.14;100.00
10881;BME280;5493;48.884;8.338;2023-01-27T03:48:23;100578.59;;;2.04;100.00
10881;BME280;5493;48.884;8.338;2023-01-27T03:50:49;100581.97;;;1.88;100.00
10881;BME280;5493;48.884;8.338;2023-01-27T03:53:18;100591.34;;;2.01;100.00
10881;BME280;5493;48.884;8.338;2023-01-27T03:55:45;100586.88;;;2.01;100.00
10881;BME280;5493;48.884;8.338;2023-01-27T03:58:18;100598.16;;;1.95;100.00
10881;BME280;5493;48.884;8.338;2023-01-27T04:00:46;100595.63;;;1.93;100.00
10881;BME280;5493;48.884;8.338;2023-01-27T04:03:14;100599.53;;;1.81;100.00
10881;BME280;5493;48.884;8.338;2023-01-27T04:06:03;100600.56;;;1.88;100.00
10881;BME280;5493;48.884;8.338;2023-01-27T04:08:47;100603.88;;;1.82;100.00
10881;BME280;5493;48.884;8.338;2023-01-27T04:11:13;100606.91;;;1.87;100.00
10881;BME280;5493;48.884;8.338;2023-01-27T04:14:00;100608.78;;;1.95;100.00
10881;BME280;5493;48.884;8.338;2023-01-27T04:16:27;100603.19;;;1.80;100.00
10881;BME280;5493;48.884;8.338;2023-01-27T04:18:54;100606.06;;;1.87;100.00
10881;BME280;5493;48.884;8.338;2023-01-27T04:21:22;100601.16;;;2.00;100.00
10881;BME280;5493;48.884;8.338;2023-01-27T04:23:49;100605.81;;;1.98;100.00
10881;BME280;5493;48.884;8.338;2023-01-27T04:26:16;100605.38;;;2.11;100.00
10881;BME280;5493;48.884;8.338;2023-01-27T04:28:43;100609.19;;;1.82;100.00
10881;BME280;5493;48.884;8.338;2023-01-27T04:31:09;100616.84;;;1.85;100.00
10881;BME280;5493;48.884;8.338;2023-01-27T04:33:36;100609.44;;;1.97;100.00
10881;BME280;5493;48.884;8.338;2023-01-27T04:36:03;100616.59;;;1.96;100.00
10881;BME280;5493;48.884;8.338;2023-01-27T04:38:30;100609.25;;;1.90;100.00
10881;BME280;5493;48.884;8.338;2023-01-27T04:40:57;100613.53;;;2.09;100.00
10881;BME280;5493;48.884;8.338;2023-01-27T04:43:24;100609.19;;;2.08;100.00
10881;BME280;5493;48.884;8.338;2023-01-27T04:45:50;100613.97;;;2.05;100.00
10881;BME280;5493;48.884;8.338;2023-01-27T04:48:17;100613.31;;;2.03;100.00
10881;BME280;5493;48.884;8.338;2023-01-27T04:50:43;100613.56;;;2.17;100.00
10881;BME280;5493;48.884;8.338;2023-01-27T04:53:10;100601.13;;;2.26;100.00
10881;BME280;5493;48.884;8.338;2023-01-27T04:55:38;100603.28;;;2.22;100.00
10881;BME280;5493;48.884;8.338;2023-01-27T04:58:04;100595.69;;;2.35;100.00
10881;BME280;5493;48.884;8.338;2023-01-27T05:00:31;100603.81;;;2.26;100.00
10881;BME280;5493;48.884;8.338;2023-01-27T05:02:57;100605.47;;;2.27;100.00
10881;BME280;5493;48.884;8.338;2023-01-27T05:05:24;100605.69;;;2.08;100.00
10881;BME280;5493;48.884;8.338;2023-01-27T05:07:50;100612.88;;;2.15;100.00
10881;BME280;5493;48.884;8.338;2023-01-27T05:10:17;100608.88;;;2.11;100.00
10881;BME280;5493;48.884;8.338;2023-01-27T05:12:45;100616.66;;;2.05;100.00
10881;BME280;5493;48.884;8.338;2023-01-27T05:15:11;100616.53;;;2.14;100.00
10881;BME280;5493;48.884;8.338;2023-01-27T05:17:38;100614.66;;;2.07;100.00
10881;BME280;5493;48.884;8.338;2023-01-27T05:20:05;100619.19;;;2.14;100.00
10881;BME280;5493;48.884;8.338;2023-01-27T05:22:31;100618.41;;;2.22;100.00
10881;BME280;5493;48.884;8.338;2023-01-27T05:24:58;100612.75;;;2.17;100.00
10881;BME280;5493;48.884;8.338;2023-01-27T05:27:24;100622.69;;;2.15;100.00
10881;BME280;5493;48.884;8.338;2023-01-27T05:29:52;100620.88;;;2.15;100.00
10881;BME280;5493;48.884;8.338;2023-01-27T05:32:19;100622.88;;;2.13;100.00
10881;BME280;5493;48.884;8.338;2023-01-27T05:34:45;100616.44;;;2.24;100.00
10881;BME280;5493;48.884;8.338;2023-01-27T05:37:11;100626.03;;;2.17;100.00
10881;BME280;5493;48.884;8.338;2023-01-27T05:39:38;100626.75;;;2.27;100.00
10881;BME280;5493;48.884;8.338;2023-01-27T05:42:05;100620.91;;;2.23;100.00
10881;BME280;5493;48.884;8.338;2023-01-27T05:44:31;100631.50;;;2.15;100.00
10881;BME280;5493;48.884;8.338;2023-01-27T05:46:59;100627.22;;;2.22;100.00
10881;BME280;5493;48.884;8.338;2023-01-27T05:49:26;100637.19;;;2.20;100.00
10881;BME280;5493;48.884;8.338;2023-01-27T05:51:52;100646.22;;;2.02;100.00
10881;BME280;5493;48.884;8.338;2023-01-27T05:54:19;100646.00;;;1.95;100.00
10881;BME280;5493;48.884;8.338;2023-01-27T05:56:45;100657.44;;;1.95;100.00
10881;BME280;5493;48.884;8.338;2023-01-27T05:59:12;100647.19;;;2.01;100.00
10881;BME280;5493;48.884;8.338;2023-01-27T06:01:38;100640.69;;;1.95;100.00
10881;BME280;5493;48.884;8.338;2023-01-27T06:04:06;100641.81;;;1.92;100.00
10881;BME280;5493;48.884;8.338;2023-01-27T06:06:33;100640.50;;;1.96;100.00
10881;BME280;5493;48.884;8.338;2023-01-27T06:09:00;100642.81;;;1.91;100.00
10881;BME280;5493;48.884;8.338;2023-01-27T06:11:27;100644.06;;;2.05;100.00
10881;BME280;5493;48.884;8.338;2023-01-27T06:13:54;100631.88;;;1.94;100.00
10881;BME280;5493;48.884;8.338;2023-01-27T06:16:22;100630.53;;;2.16;100.00
10881;BME280;5493;48.884;8.338;2023-01-27T06:18:48;100637.91;;;2.05;100.00
10881;BME280;5493;48.884;8.338;2023-01-27T06:21:17;100649.00;;;2.00;100.00
10881;BME280;5493;48.884;8.338;2023-01-27T06:23:44;100647.81;;;1.94;100.00
10881;BME280;5493;48.884;8.338;2023-01-27T06:26:12;100642.59;;;2.11;100.00
10881;BME280;5493;48.884;8.338;2023-01-27T06:28:40;100650.84;;;1.99;100.00
10881;BME280;5493;48.884;8.338;2023-01-27T06:31:09;100643.63;;;1.92;100.00
10881;BME280;5493;48.884;8.338;2023-01-27T06:33:36;100644.53;;;2.01;100.00
10881;BME280;5493;48.884;8.338;2023-01-27T06:36:04;100654.50;;;1.98;100.00
10881;BME280;5493;48.884;8.338;2023-01-27T06:38:33;100657.69;;;2.02;100.00
10881;BME280;5493;48.884;8.338;2023-01-27T06:41:00;100667.75;;;2.16;100.00
10881;BME280;5493;48.884;8.338;2023-01-27T06:43:26;100669.91;;;2.13;100.00
10881;BME280;5493;48.884;8.338;2023-01-27T06:45:53;100678.25;;;2.00;100.00
10881;BME280;5493;48.884;8.338;2023-01-27T06:48:22;100672.03;;;2.09;100.00
10881;BME280;5493;48.884;8.338;2023-01-27T06:50:49;100669.06;;;2.12;100.00
10881;BME280;5493;48.884;8.338;2023-01-27T06:53:15;100677.38;;;2.17;100.00
10881;BME280;5493;48.884;8.338;2023-01-27T06:55:43;100667.59;;;2.18;100.00
10881;BME280;5493;48.884;8.338;2023-01-27T06:58:12;100671.59;;;1.96;100.00
10881;BME280;5493;48.884;8.338;2023-01-27T07:00:39;100674.97;;;2.24;100.00
10881;BME280;5493;48.884;8.338;2023-01-27T07:03:08;100673.16;;;2.32;100.00
10881;BME280;5493;48.884;8.338;2023-01-27T07:05:35;100675.53;;;2.10;100.00
10881;BME280;5493;48.884;8.338;2023-01-27T07:08:03;100675.38;;;2.37;100.00
10881;BME280;5493;48.884;8.338;2023-01-27T07:10:29;100672.56;;;2.38;100.00
10881;BME280;5493;48.884;8.338;2023-01-27T07:13:04;100681.47;;;2.55;100.00
10881;BME280;5493;48.884;8.338;2023-01-27T07:15:31;100684.38;;;2.44;100.00
10881;BME280;5493;48.884;8.338;2023-01-27T07:17:58;100686.13;;;2.27;100.00
10881;BME280;5493;48.884;8.338;2023-01-27T07:20:24;100688.88;;;2.18;100.00
10881;BME280;5493;48.884;8.338;2023-01-27T07:22:52;100694.03;;;2.45;100.00
10881;BME280;5493;48.884;8.338;2023-01-27T07:25:19;100699.94;;;2.31;100.00
10881;BME280;5493;48.884;8.338;2023-01-27T07:27:45;100701.03;;;2.20;100.00
10881;BME280;5493;48.884;8.338;2023-01-27T07:30:14;100704.09;;;2.33;100.00
10881;BME280;5493;48.884;8.338;2023-01-27T07:32:40;100713.81;;;2.17;100.00
10881;BME280;5493;48.884;8.338;2023-01-27T07:35:07;100713.53;;;2.02;100.00
10881;BME280;5493;48.884;8.338;2023-01-27T07:37:34;100713.31;;;2.21;100.00
10881;BME280;5493;48.884;8.338;2023-01-27T07:40:00;100719.28;;;2.15;100.00
10881;BME280;5493;48.884;8.338;2023-01-27T07:42:27;100725.50;;;2.24;100.00
10881;BME280;5493;48.884;8.338;2023-01-27T07:44:54;100726.03;;;2.27;100.00
10881;BME280;5493;48.884;8.338;2023-01-27T07:47:21;100740.16;;;2.10;100.00
10881;BME280;5493;48.884;8.338;2023-01-27T07:49:48;100729.91;;;2.15;100.00
10881;BME280;5493;48.884;8.338;2023-01-27T07:52:15;100731.19;;;2.11;100.00
10881;BME280;5493;48.884;8.338;2023-01-27T07:54:42;100730.84;;;2.06;100.00
10881;BME280;5493;48.884;8.338;2023-01-27T07:57:08;100731.00;;;2.05;100.00
10881;BME280;5493;48.884;8.338;2023-01-27T07:59:35;100732.63;;;2.23;100.00
10881;BME280;5493;48.884;8.338;2023-01-27T08:02:01;100737.53;;;1.92;100.00
10881;BME280;5493;48.884;8.338;2023-01-27T08:04:29;100741.25;;;1.99;100.00
10881;BME280;5493;48.884;8.338;2023-01-27T08:06:56;100738.81;;;2.24;100.00
10881;BME280;5493;48.884;8.338;2023-01-27T08:09:22;100743.06;;;2.17;100.00
10881;BME280;5493;48.884;8.338;2023-01-27T08:11:49;100738.41;;;2.19;100.00
10881;BME280;5493;48.884;8.338;2023-01-27T08:14:15;100746.72;;;2.16;100.00
10881;BME280;5493;48.884;8.338;2023-01-27T08:16:42;100740.03;;;1.94;100.00
10881;BME280;5493;48.884;8.338;2023-01-27T08:19:08;100747.16;;;2.11;100.00
10881;BME280;5493;48.884;8.338;2023-01-27T08:21:36;100745.19;;;2.13;100.00
10881;BME280;5493;48.884;8.338;2023-01-27T08:24:03;100747.25;;;2.02;100.00
10881;BME280;5493;48.884;8.338;2023-01-27T08:26:30;100753.78;;;2.07;100.00
10881;BME280;5493;48.884;8.338;2023-01-27T08:28:56;100756.59;;;2.23;100.00
10881;BME280;5493;48.884;8.338;2023-01-27T08:31:23;100749.22;;;1.99;100.00
10881;BME280;5493;48.884;8.338;2023-01-27T08:33:51;100744.81;;;2.08;100.00
10881;BME280;5493;48.884;8.338;2023-01-27T08:36:19;100750.34;;;2.15;100.00
10881;BME280;5493;48.884;8.338;2023-01-27T08:38:47;100753.72;;;2.17;100.00
10881;BME280;5493;48.884;8.338;2023-01-27T08:41:16;100743.63;;;2.03;100.00
10881;BME280;5493;48.884;8.338;2023-01-27T08:43:43;100754.38;;;2.19;100.00
10881;BME280;5493;48.884;8.338;2023-01-27T08:46:10;100756.06;;;2.02;100.00
10881;BME280;5493;48.884;8.338;2023-01-27T08:48:37;100753.84;;;2.15;100.00
10881;BME280;5493;48.884;8.338;2023-01-27T08:51:05;100757.88;;;2.19;100.00
10881;BME280;5493;48.884;8.338;2023-01-27T08:53:32;100762.91;;;2.05;100.00
10881;BME280;5493;48.884;8.338;2023-01-27T08:56:04;100760.38;;;2.03;100.00
10881;BME280;5493;48.884;8.338;2023-01-27T08:58:31;100751.78;;;2.27;100.00
10881;BME280;5493;48.884;8.338;2023-01-27T09:00:58;100750.25;;;2.24;100.00
10881;BME280;5493;48.884;8.338;2023-01-27T09:03:26;100760.75;;;2.26;100.00
10881;BME280;5493;48.884;8.338;2023-01-27T09:05:52;100743.94;;;2.25;100.00
10881;BME280;5493;48.884;8.338;2023-01-27T09:08:19;100748.66;;;2.14;100.00
10881;BME280;5493;48.884;8.338;2023-01-27T09:10:45;100753.19;;;2.13;100.00
10881;BME280;5493;48.884;8.338;2023-01-27T09:13:13;100746.69;;;2.33;100.00
10881;BME280;5493;48.884;8.338;2023-01-27T09:15:41;100745.06;;;2.40;100.00
10881;BME280;5493;48.884;8.338;2023-01-27T09:18:08;100739.63;;;2.50;100.00
10881;BME280;5493;48.884;8.338;2023-01-27T09:20:35;100749.28;;;2.51;100.00
10881;BME280;5493;48.884;8.338;2023-01-27T09:23:02;100754.09;;;2.73;100.00
10881;BME280;5493;48.884;8.338;2023-01-27T09:25:29;100756.03;;;2.89;100.00
10881;BME280;5493;48.884;8.338;2023-01-27T09:27:57;100757.28;;;2.77;100.00
10881;BME280;5493;48.884;8.338;2023-01-27T09:30:27;100761.63;;;2.78;100.00
10881;BME280;5493;48.884;8.338;2023-01-27T09:32:56;100772.41;;;2.76;100.00
10881;BME280;5493;48.884;8.338;2023-01-27T09:35:25;100773.13;;;2.86;100.00
10881;BME280;5493;48.884;8.338;2023-01-27T09:37:54;100773.13;;;2.86;100.00
10881;BME280;5493;48.884;8.338;2023-01-27T09:40:29;100783.84;;;2.69;100.00
10881;BME280;5493;48.884;8.338;2023-01-27T09:43:28;100776.56;;;2.79;100.00
10881;BME280;5493;48.884;8.338;2023-01-27T09:46:34;100776.91;;;2.76;100.00
10881;BME280;5493;48.884;8.338;2023-01-27T09:49:21;100778.84;;;2.66;100.00
10881;BME280;5493;48.884;8.338;2023-01-27T09:52:02;100774.72;;;3.05;100.00
10881;BME280;5493;48.884;8.338;2023-01-27T09:54:43;100770.13;;;2.81;100.00
10881;BME280;5493;48.884;8.338;2023-01-27T09:57:21;100781.81;;;2.88;100.00
10881;BME280;5493;48.884;8.338;2023-01-27T10:00:02;100767.88;;;2.69;100.00
10881;BME280;5493;48.884;8.338;2023-01-27T10:02:57;100780.28;;;2.86;100.00
10881;BME280;5493;48.884;8.338;2023-01-27T10:05:38;100774.69;;;2.97;100.00
10881;BME280;5493;48.884;8.338;2023-01-27T10:08:19;100771.41;;;3.03;100.00
10881;BME280;5493;48.884;8.338;2023-01-27T10:11:02;100777.16;;;2.90;100.00
10881;BME280;5493;48.884;8.338;2023-01-27T10:13:40;100777.06;;;3.08;100.00
10881;BME280;5493;48.884;8.338;2023-01-27T10:16:23;100784.09;;;2.83;100.00
10881;BME280;5493;48.884;8.338;2023-01-27T10:19:12;100771.22;;;2.71;100.00
10881;BME280;5493;48.884;8.338;2023-01-27T10:21:51;100782.00;;;2.69;100.00
10881;BME280;5493;48.884;8.338;2023-01-27T10:24:28;100772.84;;;2.64;100.00
10881;BME280;5493;48.884;8.338;2023-01-27T10:27:04;100774.09;;;2.52;100.00
10881;BME280;5493;48.884;8.338;2023-01-27T10:29:38;100770.59;;;2.77;100.00
10881;BME280;5493;48.884;8.338;2023-01-27T10:32:13;100762.00;;;2.91;100.00
10881;BME280;5493;48.884;8.338;2023-01-27T10:34:48;100763.38;;;2.69;100.00
10881;BME280;5493;48.884;8.338;2023-01-27T10:37:26;100769.94;;;2.83;100.00
10881;BME280;5493;48.884;8.338;2023-01-27T10:39:59;100778.09;;;2.81;100.00
10881;BME280;5493;48.884;8.338;2023-01-27T10:42:32;100757.19;;;2.94;100.00
10881;BME280;5493;48.884;8.338;2023-01-27T10:45:10;100761.09;;;2.74;100.00
10881;BME280;5493;48.884;8.338;2023-01-27T10:47:52;100763.75;;;3.00;100.00
10881;BME280;5493;48.884;8.338;2023-01-27T10:50:26;100760.34;;;2.90;100.00
10881;BME280;5493;48.884;8.338;2023-01-27T10:53:00;100763.09;;;3.06;100.00
10881;BME280;5493;48.884;8.338;2023-01-27T10:55:36;100760.50;;;2.88;100.00
10881;BME280;5493;48.884;8.338;2023-01-27T10:58:05;100751.00;;;3.20;100.00
10881;BME280;5493;48.884;8.338;2023-01-27T11:00:38;100750.66;;;3.23;100.00
10881;BME280;5493;48.884;8.338;2023-01-27T11:03:11;100754.13;;;3.15;100.00
10881;BME280;5493;48.884;8.338;2023-01-27T11:05:43;100752.06;;;3.01;100.00
10881;BME280;5493;48.884;8.338;2023-01-27T11:08:15;100750.56;;;2.98;100.00
10881;BME280;5493;48.884;8.338;2023-01-27T11:10:45;100749.06;;;3.04;100.00
10881;BME280;5493;48.884;8.338;2023-01-27T11:13:29;100753.38;;;2.97;100.00
10881;BME280;5493;48.884;8.338;2023-01-27T11:15:56;100751.41;;;2.99;100.00
10881;BME280;5493;48.884;8.338;2023-01-27T11:18:26;100753.09;;;3.00;100.00
10881;BME280;5493;48.884;8.338;2023-01-27T11:20:58;100747.97;;;3.15;100.00
10881;BME280;5493;48.884;8.338;2023-01-27T11:23:27;100746.53;;;2.94;100.00
10881;BME280;5493;48.884;8.338;2023-01-27T11:26:01;100745.47;;;3.13;100.00
10881;BME280;5493;48.884;8.338;2023-01-27T11:28:31;100743.50;;;3.23;100.00
10881;BME280;5493;48.884;8.338;2023-01-27T11:31:05;100737.31;;;3.15;100.00
10881;BME280;5493;48.884;8.338;2023-01-27T11:33:45;100738.19;;;2.89;100.00
10881;BME280;5493;48.884;8.338;2023-01-27T11:36:17;100739.50;;;3.19;100.00
10881;BME280;5493;48.884;8.338;2023-01-27T11:38:43;100736.38;;;3.32;100.00
10881;BME280;5493;48.884;8.338;2023-01-27T11:41:10;100739.00;;;3.24;100.00
10881;BME280;5493;48.884;8.338;2023-01-27T11:43:37;100736.50;;;3.14;100.00
10881;BME280;5493;48.884;8.338;2023-01-27T11:46:06;100738.66;;;3.19;100.00
10881;BME280;5493;48.884;8.338;2023-01-27T11:48:39;100734.25;;;3.43;100.00
10881;BME280;5493;48.884;8.338;2023-01-27T11:51:18;100737.13;;;3.08;100.00
10881;BME280;5493;48.884;8.338;2023-01-27T11:53:48;100735.66;;;3.14;100.00
10881;BME280;5493;48.884;8.338;2023-01-27T11:56:18;100730.66;;;3.19;100.00
10881;BME280;5493;48.884;8.338;2023-01-27T11:58:49;100727.28;;;3.09;100.00
10881;BME280;5493;48.884;8.338;2023-01-27T12:01:18;100727.16;;;3.10;100.00
10881;BME280;5493;48.884;8.338;2023-01-27T12:03:51;100726.34;;;3.18;100.00
10881;BME280;5493;48.884;8.338;2023-01-27T12:06:27;100713.69;;;3.20;100.00
10881;BME280;5493;48.884;8.338;2023-01-27T12:08:56;100727.38;;;3.33;100.00
10881;BME280;5493;48.884;8.338;2023-01-27T12:11:24;100719.53;;;3.23;100.00
10881;BME280;5493;48.884;8.338;2023-01-27T12:13:53;100713.50;;;3.13;100.00
10881;BME280;5493;48.884;8.338;2023-01-27T12:16:23;100719.00;;;3.20;100.00
10881;BME280;5493;48.884;8.338;2023-01-27T12:18:54;100713.56;;;3.37;100.00
10881;BME280;5493;48.884;8.338;2023-01-27T12:21:34;100719.72;;;3.30;100.00
10881;BME280;5493;48.884;8.338;2023-01-27T12:24:01;100714.69;;;3.19;100.00
10881;BME280;5493;48.884;8.338;2023-01-27T12:26:33;100724.66;;;3.17;100.00
10881;BME280;5493;48.884;8.338;2023-01-27T12:29:05;100721.31;;;3.07;100.00
10881;BME280;5493;48.884;8.338;2023-01-27T12:31:42;100719.63;;;3.06;100.00
10881;BME280;5493;48.884;8.338;2023-01-27T12:34:21;100714.88;;;3.33;100.00
10881;BME280;5493;48.884;8.338;2023-01-27T12:36:51;100718.19;;;3.19;100.00
10881;BME280;5493;48.884;8.338;2023-01-27T12:39:39;100716.22;;;3.21;100.00
10881;BME280;5493;48.884;8.338;2023-01-27T12:42:38;100720.38;;;3.24;100.00
10881;BME280;5493;48.884;8.338;2023-01-27T12:45:23;100728.31;;;3.16;100.00
10881;BME280;5493;48.884;8.338;2023-01-27T12:47:55;100723.13;;;3.06;100.00
10881;BME280;5493;48.884;8.338;2023-01-27T12:50:24;100710.00;;;3.13;100.00
10881;BME280;5493;48.884;8.338;2023-01-27T12:52:56;100721.38;;;3.31;100.00
10881;BME280;5493;48.884;8.338;2023-01-27T12:55:30;100716.69;;;3.17;100.00
10881;BME280;5493;48.884;8.338;2023-01-27T12:57:57;100715.00;;;3.16;100.00
10881;BME280;5493;48.884;8.338;2023-01-27T13:00:24;100720.81;;;3.11;100.00
10881;BME280;5493;48.884;8.338;2023-01-27T13:02:59;100718.91;;;3.37;100.00
10881;BME280;5493;48.884;8.338;2023-01-27T13:05:34;100720.59;;;3.55;100.00
10881;BME280;5493;48.884;8.338;2023-01-27T13:08:03;100722.03;;;3.25;100.00
10881;BME280;5493;48.884;8.338;2023-01-27T13:10:30;100718.25;;;3.35;100.00
10881;BME280;5493;48.884;8.338;2023-01-27T13:12:58;100719.06;;;3.28;100.00
10881;BME280;5493;48.884;8.338;2023-01-27T13:15:27;100716.88;;;3.23;100.00